Time;durP1;ratioP1;P1;durP2;ratioP2;P2;SDS_P1;SDS_P2;PMS_P1;PMS_P2;Temp;Humidity;BMP_temperature;BMP_pressure;BME280_temperature;BME280_humidity;BME280_pressure;Samples;Min_cycle;Max_cycle;Signal;HPM_P1;HPM_P2
2022/10/14 00:01:15;;;;;;;26.77;11.68;;;;;;;15.66;56.81;99043.84;4471730;32;20088;-85
2022/10/14 00:03:41;;;;;;;;;;;;;;;15.75;56.67;99050.34;4472105;32;20092;-85
2022/10/14 00:06:12;;;;;;;25.75;12.88;;;;;;;15.75;56.75;99050.34;4470803;32;19995;-85
2022/10/14 00:08:38;;;;;;;24.08;12.02;;;;;;;15.76;56.65;99052.06;4471935;32;20152;-85
2022/10/14 00:11:11;;;;;;;24.12;11.85;;;;;;;15.75;56.65;99042.38;4471798;32;20110;-85
2022/10/14 00:13:37;;;;;;;24.90;12.43;;;;;;;15.75;56.69;99039.72;4470637;32;20111;-85
2022/10/14 00:16:04;;;;;;;23.42;12.32;;;;;;;15.60;57.17;99043.44;4471907;32;20128;-85
2022/10/14 00:18:30;;;;;;;22.15;11.20;;;;;;;15.57;57.23;99044.53;4471726;32;20116;-85
2022/10/14 00:20:56;;;;;;;25.25;12.45;;;;;;;15.70;56.93;99047.13;4471696;32;20314;-85
2022/10/14 00:23:22;;;;;;;21.98;11.23;;;;;;;15.69;56.95;99048.09;4471573;32;20514;-85
2022/10/14 00:25:48;;;;;;;24.83;12.37;;;;;;;15.68;56.97;99041.06;4470509;32;20100;-85
2022/10/14 00:28:13;;;;;;;22.90;12.13;;;;;;;15.69;56.94;99040.97;4471544;32;20180;-84
2022/10/14 00:30:39;;;;;;;24.17;12.35;;;;;;;15.60;57.21;99038.97;4471613;32;20135;-84
2022/10/14 00:33:04;;;;;;;25.50;11.90;;;;;;;15.65;57.05;99031.53;4471607;32;20154;-84
2022/10/14 00:35:31;;;;;;;24.23;11.52;;;;;;;15.68;56.99;99038.44;4471562;32;20120;-88
2022/10/14 00:37:59;;;;;;;22.58;12.18;;;;;;;15.60;57.30;99028.34;4471597;32;20093;-88
2022/10/14 00:40:25;;;;;;;29.15;12.88;;;;;;;15.67;57.07;99034.09;4471336;32;20100;-88
2022/10/14 00:42:51;;;;;;;23.20;11.07;;;;;;;15.59;57.22;99029.31;4470306;32;20161;-87
2022/10/14 00:45:24;;;;;;;23.50;11.32;;;;;;;15.66;57.05;99027.91;4470218;32;20174;-87
2022/10/14 00:47:50;;;;;;;22.35;10.98;;;;;;;15.52;57.42;99033.37;4470423;32;20197;-87
2022/10/14 00:50:16;;;;;;;23.65;10.90;;;;;;;15.64;56.99;99028.97;4471268;32;20084;-88
2022/10/14 00:52:42;;;;;;;21.10;10.85;;;;;;;15.58;57.17;99032.09;4470153;32;20111;-87
2022/10/14 00:55:15;;;;;;;21.25;10.45;;;;;;;15.63;56.96;99022.00;4471534;32;20097;-87
2022/10/14 00:57:40;;;;;;;22.15;10.75;;;;;;;15.57;57.07;99027.72;4470474;32;20777;-87
2022/10/14 01:00:12;;;;;;;23.85;10.40;;;;;;;15.65;56.78;99020.91;4471503;32;20088;-86
2022/10/14 01:02:38;;;;;;;20.23;9.95;;;;;;;15.64;56.71;99016.53;4470151;32;20424;-86
2022/10/14 01:05:06;;;;;;;20.45;9.93;;;;;;;15.67;56.55;99015.50;4470476;32;20169;-86
2022/10/14 01:07:45;;;;;;;20.27;9.50;;;;;;;15.66;56.61;99019.09;4470522;32;20105;-86
2022/10/14 01:10:32;;;;;;;20.90;10.13;;;;;;;15.65;56.47;99012.09;4470215;32;20085;-86
2022/10/14 01:13:25;;;;;;;20.00;9.57;;;;;;;15.58;56.64;99019.66;4471485;32;20065;-86
2022/10/14 01:15:57;;;;;;;20.98;10.52;;;;;;;15.55;56.79;99017.22;4438202;32;20098;-85
2022/10/14 01:18:41;;;;;;;20.70;10.48;;;;;;;15.56;56.87;99018.91;4438157;32;20097;-86
2022/10/14 01:21:17;;;;;;;25.75;10.88;;;;;;;15.61;56.70;99015.94;4437979;32;20089;-89
2022/10/14 01:24:00;;;;;;;20.23;9.95;;;;;;;15.61;56.72;99011.47;4425523;32;20093;-88
2022/10/14 01:26:43;;;;;;;23.02;10.50;;;;;;;15.54;57.03;99019.00;4438010;32;20101;-84
2022/10/14 01:29:26;;;;;;;21.67;10.88;;;;;;;15.52;57.10;99009.47;4438300;32;20417;-85
2022/10/14 01:32:00;;;;;;;22.25;10.38;;;;;;;15.49;57.36;99007.88;4438093;32;20089;-84
2022/10/14 01:34:30;;;;;;;24.85;11.77;;;;;;;15.52;57.14;99010.31;4438130;32;20107;-84
2022/10/14 01:37:03;;;;;;;21.33;10.75;;;;;;;15.42;57.50;99013.75;4438255;32;20101;-85
2022/10/14 01:39:43;;;;;;;24.63;11.32;;;;;;;15.50;57.25;99012.22;4424970;32;20118;-88
2022/10/14 01:42:18;;;;;;;20.17;10.55;;;;;;;15.50;57.22;99001.59;4425187;32;20580;-89
2022/10/14 01:44:50;;;;;;;25.30;11.38;;;;;;;15.56;57.13;98999.47;4437772;32;20128;-84
2022/10/14 01:47:18;;;;;;;21.45;10.75;;;;;;;15.58;57.16;98997.56;4425021;32;20109;-84
2022/10/14 01:49:48;;;;;;;21.83;10.90;;;;;;;15.60;57.02;98995.66;4424815;32;20172;-84
2022/10/14 01:52:21;;;;;;;23.05;11.48;;;;;;;15.65;56.87;98996.16;4432206;32;20092;-84
2022/10/14 01:54:51;;;;;;;19.62;9.93;;;;;;;15.51;57.28;98995.34;4469814;32;20080;-84
2022/10/14 01:57:23;;;;;;;22.13;10.43;;;;;;;15.61;56.96;98992.88;4469851;32;20128;-84
2022/10/14 01:59:51;;;;;;;20.37;10.25;;;;;;;15.62;56.92;98988.41;4469154;32;20105;-84
2022/10/14 02:02:17;;;;;;;21.05;10.45;;;;;;;15.61;56.87;98990.22;4469621;32;20092;-86
2022/10/14 02:04:42;;;;;;;22.60;9.55;;;;;;;15.61;56.82;98994.69;4469582;32;20140;-86
2022/10/14 02:07:14;;;;;;;22.15;11.18;;;;;;;15.60;56.89;98993.81;4470568;32;20092;-86
2022/10/14 02:10:05;;;;;;;22.30;10.32;;;;;;;15.58;56.88;98992.25;4469573;32;20512;-86
2022/10/14 02:12:46;;;;;;;23.83;11.20;;;;;;;15.62;56.80;98993.72;4437357;32;20136;-86
2022/10/14 02:15:19;;;;;;;20.95;10.38;;;;;;;15.56;57.06;98996.81;4437226;32;20089;-86
2022/10/14 02:17:48;;;;;;;22.15;10.05;;;;;;;15.60;56.77;98993.81;4437419;32;20113;-85
2022/10/14 02:20:19;;;;;;;24.92;10.70;;;;;;;15.62;56.68;98991.06;4437143;32;20129;-86
2022/10/14 02:22:49;;;;;;;21.83;10.75;;;;;;;15.57;56.81;98990.53;4437303;32;20284;-85
2022/10/14 02:25:22;;;;;;;22.23;11.10;;;;;;;15.63;56.64;98990.13;4437281;32;20428;-86
2022/10/14 02:27:48;;;;;;;23.02;10.95;;;;;;;15.55;56.96;98988.03;4424412;32;20163;-86
2022/10/14 02:30:14;;;;;;;22.67;11.82;;;;;;;15.47;57.08;98991.22;4424291;32;20102;-86
2022/10/14 02:32:40;;;;;;;25.35;12.27;;;;;;;15.52;56.96;98989.06;4424226;32;20086;-86
2022/10/14 02:35:07;;;;;;;22.42;11.60;;;;;;;15.57;56.91;98993.19;4424239;32;20119;-86
2022/10/14 02:37:34;;;;;;;22.17;11.65;;;;;;;15.52;57.12;98983.75;4424146;32;20089;-86
2022/10/14 02:40:22;;;;;;;25.12;13.45;;;;;;;15.61;56.82;98984.91;4424335;32;20170;-84
2022/10/14 02:42:48;;;;;;;22.33;11.15;;;;;;;15.40;57.58;98989.97;4436796;32;20535;-85
2022/10/14 02:45:13;;;;;;;22.65;11.27;;;;;;;15.53;57.02;98979.31;4424022;32;20133;-85
2022/10/14 02:47:39;;;;;;;24.37;11.60;;;;;;;15.52;57.04;98989.06;4424111;32;20144;-83
2022/10/14 02:50:05;;;;;;;22.27;11.68;;;;;;;15.39;57.21;98988.25;4461109;32;20088;-84
2022/10/14 02:52:31;;;;;;;25.25;12.35;;;;;;;15.53;56.88;98987.28;4470175;32;20111;-84
2022/10/14 02:54:56;;;;;;;25.00;12.43;;;;;;;15.52;56.92;98985.56;4470006;32;20129;-84
2022/10/14 02:57:22;;;;;;;23.83;12.25;;;;;;;15.58;56.76;98986.94;4468876;32;20113;-84
2022/10/14 02:59:47;;;;;;;22.35;11.45;;;;;;;15.55;56.86;98985.38;4470018;32;20107;-84
2022/10/14 03:02:12;;;;;;;24.83;11.35;;;;;;;15.61;56.69;98984.06;4468267;32;20135;-85
2022/10/14 03:04:38;;;;;;;22.30;10.82;;;;;;;15.63;56.58;98983.00;4469944;32;20081;-85
2022/10/14 03:07:03;;;;;;;18.87;10.55;;;;;;;15.61;56.46;98981.41;4470029;32;20137;-85
2022/10/14 03:09:29;;;;;;;22.30;10.85;;;;;;;15.65;56.33;98988.19;4469649;32;20100;-85
2022/10/14 03:11:54;;;;;;;26.00;10.40;;;;;;;15.57;56.51;98986.09;4470649;32;20489;-85
2022/10/14 03:14:19;;;;;;;25.70;12.95;;;;;;;15.58;56.58;98985.13;4472001;32;20104;-84
2022/10/14 03:16:45;;;;;;;22.05;10.50;;;;;;;15.51;56.80;98991.81;4472115;32;20146;-84
2022/10/14 03:19:10;;;;;;;22.08;11.15;;;;;;;15.57;56.61;98987.87;4471949;32;20088;-84
2022/10/14 03:21:36;;;;;;;22.87;11.63;;;;;;;15.54;56.64;98992.47;4472046;32;20124;-83
2022/10/14 03:24:01;;;;;;;24.70;12.75;;;;;;;15.53;56.67;98985.47;4472029;32;20100;-84
2022/10/14 03:26:27;;;;;;;25.23;12.55;;;;;;;15.57;56.66;98986.09;4470833;32;20101;-84
2022/10/14 03:28:52;;;;;;;25.17;12.35;;;;;;;15.56;56.71;98983.56;4472134;32;20093;-84
2022/10/14 03:31:18;;;;;;;25.17;13.52;;;;;;;15.54;56.83;98987.16;4457672;32;20119;-84
2022/10/14 03:33:43;;;;;;;26.75;12.98;;;;;;;15.58;56.79;98976.31;4471826;32;20085;-84
2022/10/14 03:36:09;;;;;;;25.70;12.80;;;;;;;15.57;56.88;98977.25;4471862;32;20084;-84
2022/10/14 03:38:34;;;;;;;23.08;12.65;;;;;;;15.52;56.97;98978.44;4471874;32;20128;-84
2022/10/14 03:41:00;;;;;;;24.05;13.43;;;;;;;15.56;56.90;98975.59;4470531;32;20161;-83
2022/10/14 03:43:25;;;;;;;26.45;13.65;;;;;;;15.55;56.98;98977.41;4472051;32;20080;-84
2022/10/14 03:45:50;;;;;;;29.05;14.80;;;;;;;15.57;56.98;98974.59;4471932;32;20137;-86
2022/10/14 03:48:16;;;;;;;31.12;14.38;;;;;;;15.60;57.03;98975.25;4470738;32;20118;-85
2022/10/14 03:50:41;;;;;;;30.65;15.73;;;;;;;15.48;57.62;98982.28;4471798;32;20103;-85
2022/10/14 03:53:07;;;;;;;28.25;14.75;;;;;;;15.51;57.62;98981.22;4470530;32;20092;-85
2022/10/14 03:55:32;;;;;;;27.75;14.38;;;;;;;15.52;57.75;98974.94;4471790;32;20116;-84
2022/10/14 03:57:58;;;;;;;32.55;14.75;;;;;;;15.51;57.89;98971.47;4470534;32;20408;-85
2022/10/14 04:00:23;;;;;;;29.58;14.40;;;;;;;15.61;57.75;98971.63;4471605;32;20102;-86
2022/10/14 04:02:49;;;;;;;30.50;15.00;;;;;;;15.67;57.68;98967.69;4470841;32;20137;-84
2022/10/14 04:05:14;;;;;;;28.12;14.27;;;;;;;15.69;57.60;98963.94;4472005;32;20463;-86
2022/10/14 04:07:39;;;;;;;30.73;15.30;;;;;;;15.73;57.50;98968.09;4472055;32;20092;-87
2022/10/14 04:10:05;;;;;;;29.73;15.48;;;;;;;15.68;57.60;98964.94;4471932;32;20421;-88
2022/10/14 04:12:31;;;;;;;26.67;14.00;;;;;;;15.69;57.52;98963.13;4471951;32;20109;-88
2022/10/14 04:14:57;;;;;;;30.08;15.05;;;;;;;15.67;57.57;98962.38;4471943;32;20458;-89
2022/10/14 04:17:23;;;;;;;31.27;14.27;;;;;;;15.61;57.67;98962.84;4470736;32;20097;-89
2022/10/14 04:19:49;;;;;;;28.25;14.15;;;;;;;15.64;57.48;98958.13;4470740;32;20491;-89
2022/10/14 04:22:15;;;;;;;31.80;16.17;;;;;;;15.63;57.44;98964.41;4471787;32;20136;-89
2022/10/14 04:24:40;;;;;;;27.67;14.50;;;;;;;15.47;57.98;98959.38;4469977;32;20100;-89
2022/10/14 04:27:06;;;;;;;29.83;15.35;;;;;;;15.50;57.76;98961.78;4471960;32;20089;-89
2022/10/14 04:29:31;;;;;;;28.70;14.73;;;;;;;15.52;57.64;98954.56;4470805;32;20420;-89
2022/10/14 04:31:57;;;;;;;29.70;15.15;;;;;;;15.53;57.58;98958.06;4471761;32;20081;-89
2022/10/14 04:34:22;;;;;;;27.60;13.93;;;;;;;15.49;57.60;98946.81;4470732;32;20142;-87
2022/10/14 04:36:47;;;;;;;36.67;14.23;;;;;;;15.48;57.57;98953.09;4471719;32;20092;-87
2022/10/14 04:39:14;;;;;;;29.77;15.25;;;;;;;15.45;57.58;98950.66;4471848;32;20120;-86
2022/10/14 04:41:39;;;;;;;29.65;15.73;;;;;;;15.47;57.52;98954.06;4470931;32;20115;-88
2022/10/14 04:44:05;;;;;;;31.95;16.30;;;;;;;15.41;57.64;98957.13;4470490;32;20128;-88
2022/10/14 04:46:30;;;;;;;31.25;15.18;;;;;;;15.15;58.54;98956.34;4471862;32;20436;-88
2022/10/14 04:48:56;;;;;;;30.50;15.93;;;;;;;15.27;58.17;98955.47;4470589;32;20141;-88
2022/10/14 04:51:21;;;;;;;35.10;17.08;;;;;;;15.21;58.41;98958.56;4471801;32;20153;-88
2022/10/14 04:53:46;;;;;;;39.15;18.15;;;;;;;15.13;59.03;98955.59;4471761;32;20360;-86
2022/10/14 04:56:12;;;;;;;33.55;17.62;;;;;;;15.26;58.71;98963.53;4471726;32;20108;-86
2022/10/14 04:58:37;;;;;;;37.75;17.50;;;;;;;15.31;58.62;98961.41;4471677;32;20129;-87
2022/10/14 05:01:03;;;;;;;32.85;16.45;;;;;;;15.19;59.11;98962.28;4471370;32;20089;-87
2022/10/14 05:03:28;;;;;;;35.00;17.73;;;;;;;15.23;58.93;98961.12;4471699;32;20124;-87
2022/10/14 05:05:53;;;;;;;29.23;16.35;;;;;;;15.26;58.85;98967.06;4471753;32;20114;-87
2022/10/14 05:08:19;;;;;;;27.92;15.45;;;;;;;15.27;58.76;98960.78;4471756;32;20080;-87
2022/10/14 05:10:44;;;;;;;34.17;16.58;;;;;;;15.17;59.12;98961.56;4471615;32;20168;-87
2022/10/14 05:13:10;;;;;;;33.65;16.80;;;;;;;15.29;58.68;98953.53;4470285;32;20113;-87
2022/10/14 05:15:36;;;;;;;34.08;16.37;;;;;;;15.33;58.82;98954.19;4471288;32;20100;-86
2022/10/14 05:18:01;;;;;;;36.03;16.52;;;;;;;15.35;58.95;98957.56;4471393;32;20353;-87
2022/10/14 05:20:26;;;;;;;31.40;16.10;;;;;;;15.30;59.19;98962.38;4471242;32;20107;-85
2022/10/14 05:22:52;;;;;;;34.30;17.10;;;;;;;15.35;59.11;98965.53;4470298;32;20134;-86
2022/10/14 05:25:17;;;;;;;32.35;16.20;;;;;;;15.48;58.80;98963.69;4471516;32;20165;-88
2022/10/14 05:27:43;;;;;;;34.53;16.83;;;;;;;15.46;58.65;98964.78;4470335;32;20093;-88
2022/10/14 05:30:09;;;;;;;33.58;16.52;;;;;;;15.54;58.47;98967.72;4471374;32;20080;-87
2022/10/14 05:32:35;;;;;;;33.90;16.80;;;;;;;15.65;57.91;98970.44;4471669;32;20128;-85
2022/10/14 05:35:00;;;;;;;31.52;17.02;;;;;;;15.53;57.96;98969.53;4470025;32;20114;-86
2022/10/14 05:37:26;;;;;;;28.60;15.48;;;;;;;15.66;57.71;98966.81;4471067;32;20114;-86
2022/10/14 05:39:51;;;;;;;29.67;15.07;;;;;;;15.62;57.85;98967.16;4471174;32;20131;-86
2022/10/14 05:42:16;;;;;;;32.53;15.52;;;;;;;15.79;57.49;98969.47;4470869;32;20116;-85
2022/10/14 05:44:42;;;;;;;31.90;15.38;;;;;;;15.77;57.35;98976.72;4471178;32;20084;-85
2022/10/14 05:47:09;;;;;;;27.90;14.60;;;;;;;15.78;57.25;98975.75;4469771;32;20395;-83
2022/10/14 05:49:34;;;;;;;28.73;15.48;;;;;;;15.81;57.29;98977.34;4471053;32;20436;-86
2022/10/14 05:51:59;;;;;;;31.30;15.30;;;;;;;15.88;57.14;98975.94;4470960;32;20116;-86
2022/10/14 05:54:25;;;;;;;30.00;15.07;;;;;;;15.88;57.22;98983.91;4471056;32;20169;-86
2022/10/14 05:56:50;;;;;;;33.53;15.75;;;;;;;15.96;57.02;98989.50;4469878;32;20459;-85
2022/10/14 05:59:16;;;;;;;28.10;14.50;;;;;;;15.90;57.13;98981.97;4469763;32;20142;-87
2022/10/14 06:01:42;;;;;;;34.90;15.55;;;;;;;16.08;56.96;98985.91;4470744;32;20104;-88
2022/10/14 06:04:07;;;;;;;32.30;15.75;;;;;;;16.20;56.34;98989.47;4469795;32;20109;-87
2022/10/14 06:06:33;;;;;;;28.80;15.65;;;;;;;16.25;56.28;98992.66;4470834;32;20112;-87
2022/10/14 06:08:58;;;;;;;32.10;17.15;;;;;;;16.04;56.20;98996.91;4469615;32;20122;-90
2022/10/14 06:11:24;;;;;;;28.95;15.55;;;;;;;16.30;55.93;98989.63;4470765;32;20124;-88
2022/10/14 06:13:49;;;;;;;27.10;14.75;;;;;;;16.44;55.28;99000.09;4470805;32;20131;-88
2022/10/14 06:16:15;;;;;;;28.98;14.40;;;;;;;16.50;55.20;98996.97;4470754;32;20136;-85
2022/10/14 06:18:40;;;;;;;24.40;13.10;;;;;;;16.67;54.66;98985.06;4462966;32;20093;-89
2022/10/14 06:21:06;;;;;;;25.27;13.35;;;;;;;16.79;53.90;98990.41;4463463;32;20101;-85
2022/10/14 06:23:32;;;;;;;29.77;13.55;;;;;;;16.89;53.31;98991.41;4465775;32;20109;-90
2022/10/14 06:25:57;;;;;;;25.12;13.10;;;;;;;16.97;53.25;98990.81;4469331;32;20111;-87
2022/10/14 06:28:23;;;;;;;26.55;14.00;;;;;;;17.13;53.26;98990.44;4469416;32;20107;-89
2022/10/14 06:30:50;;;;;;;26.08;13.77;;;;;;;17.13;53.78;98995.78;4470531;32;20112;-84
2022/10/14 06:33:15;;;;;;;23.00;12.93;;;;;;;17.25;53.97;98997.50;4470492;32;20101;-88
2022/10/14 06:35:40;;;;;;;24.23;11.60;;;;;;;17.32;53.83;98990.69;4470414;32;20145;-89
2022/10/14 06:38:06;;;;;;;26.05;12.73;;;;;;;17.36;53.73;99004.63;4470627;32;20076;-93
2022/10/14 06:40:31;;;;;;;30.17;14.02;;;;;;;17.42;53.63;99005.00;4470354;32;20076;-94
2022/10/14 06:42:57;;;;;;;27.23;12.32;;;;;;;17.49;53.21;98995.53;4470171;32;20080;-87
2022/10/14 06:45:23;;;;;;;25.40;13.10;;;;;;;17.34;52.41;99004.72;4470484;32;20150;-86
2022/10/14 06:47:48;;;;;;;25.80;13.95;;;;;;;17.44;52.06;98997.72;4471867;32;20424;-87
2022/10/14 06:50:14;;;;;;;24.45;13.65;;;;;;;17.42;53.57;99001.47;4458027;32;20130;-86
2022/10/14 06:52:39;;;;;;;26.10;13.25;;;;;;;17.47;53.85;99010.78;4471691;32;20065;-84
2022/10/14 06:55:05;;;;;;;25.90;13.40;;;;;;;17.45;51.96;99002.06;4467910;32;20471;-84
2022/10/14 06:57:30;;;;;;;26.05;13.20;;;;;;;17.42;51.75;99009.44;4472286;32;20092;-82
2022/10/14 06:59:56;;;;;;;24.90;13.43;;;;;;;17.48;51.43;99012.50;4472148;32;20085;-81
2022/10/14 07:02:21;;;;;;;28.35;12.95;;;;;;;17.17;52.38;99010.53;4472290;32;20115;-83
2022/10/14 07:04:47;;;;;;;22.65;11.88;;;;;;;17.41;52.22;99007.78;4472417;32;20106;-85
2022/10/14 07:07:12;;;;;;;23.90;11.88;;;;;;;17.54;52.08;99005.84;4472226;32;20428;-85
2022/10/14 07:09:37;;;;;;;24.05;12.40;;;;;;;17.70;51.81;99010.78;4472152;32;20096;-90
2022/10/14 07:12:03;;;;;;;22.25;11.55;;;;;;;17.65;51.57;99013.81;4471181;32;20088;-85
2022/10/14 07:14:28;;;;;;;29.42;13.18;;;;;;;17.85;51.19;99006.91;4472131;32;20145;-85
2022/10/14 07:16:54;;;;;;;24.20;12.50;;;;;;;17.86;51.63;99008.56;4471143;32;20099;-92
2022/10/14 07:19:19;;;;;;;22.50;11.82;;;;;;;17.98;51.56;99004.09;4471146;32;20100;-80
2022/10/14 07:21:47;;;;;;;24.40;12.20;;;;;;;18.03;51.14;99004.53;4472101;32;20180;-85
2022/10/14 07:24:13;;;;;;;22.45;12.15;;;;;;;18.19;51.21;99005.94;4472203;32;20081;-87
2022/10/14 07:26:38;;;;;;;22.60;11.23;;;;;;;18.34;50.12;99001.16;4472191;32;20446;-90
2022/10/14 07:29:04;;;;;;;24.58;12.60;;;;;;;18.36;49.70;99002.72;4470388;32;20109;-91
2022/10/14 07:31:30;;;;;;;25.15;13.52;;;;;;;18.46;48.85;99000.97;4470596;32;20195;-90
2022/10/14 07:33:56;;;;;;;25.20;13.27;;;;;;;18.19;49.56;99011.28;4469833;32;20097;-91
2022/10/14 07:36:22;;;;;;;28.58;12.20;;;;;;;17.81;50.03;99009.87;4471065;32;20091;-91
2022/10/14 07:38:47;;;;;;;27.85;12.60;;;;;;;18.23;49.82;99005.59;4472368;32;20101;-91
2022/10/14 07:41:17;;;;;;;23.75;12.10;;;;;;;18.39;49.26;99005.16;4470905;32;20436;-91
2022/10/14 07:44:08;;;;;;;23.77;11.60;;;;;;;18.54;48.62;99007.50;4471215;32;20089;-91
2022/10/14 07:46:38;;;;;;;27.73;13.20;;;;;;;18.63;48.76;99006.72;4472252;32;20094;-90
2022/10/14 07:49:05;;;;;;;24.20;13.90;;;;;;;18.72;48.56;99013.13;4471006;32;20113;-90
2022/10/14 07:51:32;;;;;;;24.65;13.50;;;;;;;18.56;49.69;99006.41;4472042;32;20358;-91
2022/10/14 07:53:59;;;;;;;26.62;13.55;;;;;;;18.66;49.63;99001.97;4471920;32;20093;-91
2022/10/14 07:56:25;;;;;;;25.15;13.75;;;;;;;18.78;49.33;99000.09;4470765;32;20088;-91
2022/10/14 07:58:51;;;;;;;28.42;14.85;;;;;;;18.88;49.29;98992.16;4469898;32;20504;-90
2022/10/14 08:01:17;;;;;;;28.65;15.30;;;;;;;18.66;49.78;98996.63;4470698;32;20536;-91
2022/10/14 08:03:43;;;;;;;32.80;14.80;;;;;;;18.81;49.76;99001.66;4471901;32;20106;-91
2022/10/14 08:06:09;;;;;;;25.88;13.35;;;;;;;18.99;48.64;98991.25;4470673;32;20080;-92
2022/10/14 08:08:34;;;;;;;29.50;13.57;;;;;;;19.13;47.58;98985.56;4470678;32;20151;-91
2022/10/14 08:11:07;;;;;;;27.42;13.07;;;;;;;19.30;46.84;98986.75;4471874;32;20085;-89
2022/10/14 08:13:33;;;;;;;24.10;13.15;;;;;;;19.00;47.24;98988.44;4470663;32;20084;-92
2022/10/14 08:15:59;;;;;;;28.02;13.13;;;;;;;19.45;46.82;98982.75;4471651;32;20130;-91
2022/10/14 08:18:24;;;;;;;23.00;11.50;;;;;;;19.70;45.58;98982.38;4471781;32;20147;-91
2022/10/14 08:20:50;;;;;;;24.92;12.02;;;;;;;19.86;44.83;98981.88;4471879;32;20330;-89
2022/10/14 08:23:16;;;;;;;22.13;12.02;;;;;;;19.92;44.49;98984.00;4471801;32;20432;-91
2022/10/14 08:25:42;;;;;;;22.85;11.25;;;;;;;20.03;44.04;98978.53;4470572;32;20136;-91
2022/10/14 08:28:08;;;;;;;20.52;10.70;;;;;;;19.97;44.19;98981.75;4471705;32;20127;-88
2022/10/14 08:30:33;;;;;;;19.20;10.60;;;;;;;20.09;44.01;98972.63;4470578;32;20096;-86
2022/10/14 08:32:59;;;;;;;20.90;10.77;;;;;;;20.14;43.64;98966.84;4470563;32;20110;-87
2022/10/14 08:35:24;;;;;;;22.17;10.60;;;;;;;20.04;43.70;98969.53;4471679;32;20093;-88
2022/10/14 08:38:00;;;;;;;23.75;11.32;;;;;;;19.97;44.12;98971.06;4470650;32;20171;-88
2022/10/14 08:40:35;;;;;;;23.58;11.88;;;;;;;20.08;44.20;98960.22;4470606;32;20131;-88
2022/10/14 08:43:25;;;;;;;21.83;10.40;;;;;;;20.03;44.15;98959.81;4470621;32;20092;-88
2022/10/14 08:45:54;;;;;;;20.23;11.25;;;;;;;19.92;44.51;98958.13;4470543;32;20081;-89
2022/10/14 08:48:23;;;;;;;24.60;11.02;;;;;;;19.80;44.93;98965.41;4471696;32;20115;-89
2022/10/14 08:50:51;;;;;;;26.50;12.02;;;;;;;19.70;45.72;98969.88;4470456;32;20112;-87
2022/10/14 08:53:19;;;;;;;23.62;12.25;;;;;;;19.55;46.54;98966.75;4470423;32;20104;-88
2022/10/14 08:55:51;;;;;;;27.95;13.35;;;;;;;19.72;46.10;98973.28;4470320;32;20519;-87
2022/10/14 08:58:34;;;;;;;32.38;15.07;;;;;;;19.73;45.98;98972.28;4471479;32;20116;-88
2022/10/14 09:01:05;;;;;;;31.15;14.82;;;;;;;19.66;46.41;98971.09;4470347;32;20096;-88
2022/10/14 09:03:35;;;;;;;26.42;14.80;;;;;;;19.40;47.06;98970.78;4470427;32;20089;-90
2022/10/14 09:06:30;;;;;;;26.58;14.15;;;;;;;19.53;46.86;98967.84;4470314;32;20455;-88
2022/10/14 09:09:03;;;;;;;26.33;12.80;;;;;;;19.57;46.46;98977.28;4463657;32;20160;-87
2022/10/14 09:11:31;;;;;;;23.25;13.32;;;;;;;19.45;47.33;98971.19;4470479;32;20459;-88
2022/10/14 09:13:58;;;;;;;23.50;13.48;;;;;;;19.51;47.38;98973.34;4471715;32;20112;-87
2022/10/14 09:16:34;;;;;;;23.98;13.25;;;;;;;19.53;47.68;98970.50;4470599;32;20088;-87
2022/10/14 09:19:09;;;;;;;25.08;12.25;;;;;;;19.61;48.01;98974.19;4470467;32;20131;-87
2022/10/14 09:21:37;;;;;;;24.92;13.07;;;;;;;19.51;48.09;98973.34;4471783;32;20123;-89
2022/10/14 09:24:24;;;;;;;26.70;13.57;;;;;;;19.58;48.23;98970.94;4471601;32;20104;-86
2022/10/14 09:26:53;;;;;;;25.42;13.30;;;;;;;19.59;48.26;98964.66;4470342;32;20085;-87
2022/10/14 09:29:24;;;;;;;25.25;13.80;;;;;;;19.63;48.49;98974.06;4470111;32;20109;-87
2022/10/14 09:31:50;;;;;;;24.83;13.18;;;;;;;19.61;48.52;98968.03;4470193;32;20165;-88
2022/10/14 09:34:19;;;;;;;28.15;14.55;;;;;;;19.67;48.64;98971.97;4469992;32;20092;-88
2022/10/14 09:36:47;;;;;;;28.33;14.15;;;;;;;19.59;48.85;98978.00;4470373;32;20082;-87
2022/10/14 09:39:12;;;;;;;;;;;;;;;19.74;48.72;98978.47;4470279;32;20768;-88
2022/10/14 09:41:38;;;;;;;33.90;14.02;;;;;;;19.77;48.38;98976.38;4471198;32;19985;-88
2022/10/14 09:44:24;;;;;;;27.33;14.30;;;;;;;19.68;48.68;98970.97;4471433;32;20133;-87
2022/10/14 09:46:57;;;;;;;28.73;14.32;;;;;;;19.64;49.02;98973.06;4469768;32;20444;-89
2022/10/14 09:49:47;;;;;;;25.27;14.27;;;;;;;19.65;49.15;98970.28;4470054;32;20123;-89
2022/10/14 09:52:22;;;;;;;25.08;13.43;;;;;;;19.64;48.82;98973.94;4471293;32;20089;-89
2022/10/14 09:54:55;;;;;;;27.17;14.32;;;;;;;19.67;48.98;98970.13;4469808;32;20156;-88
2022/10/14 09:57:21;;;;;;;29.15;15.13;;;;;;;19.56;48.99;98970.25;4469982;32;20076;-87
2022/10/14 09:59:56;;;;;;;26.25;14.18;;;;;;;19.63;49.09;98976.75;4469843;32;20168;-88
2022/10/14 10:02:24;;;;;;;28.17;14.65;;;;;;;19.53;49.32;98967.84;4469819;32;20698;-89
2022/10/14 10:04:51;;;;;;;24.08;13.02;;;;;;;19.41;50.02;98975.97;4469977;32;20085;-88
2022/10/14 10:07:36;;;;;;;27.30;14.25;;;;;;;19.65;49.85;98977.44;4469887;32;20422;-87
2022/10/14 10:10:16;;;;;;;25.23;13.75;;;;;;;19.08;50.54;98976.25;4470634;32;20425;-89
2022/10/14 10:12:45;;;;;;;28.35;14.63;;;;;;;19.53;49.55;98971.37;4471082;32;20089;-89
2022/10/14 10:15:17;;;;;;;31.02;14.82;;;;;;;19.73;48.98;98974.13;4470710;32;20096;-88
2022/10/14 10:17:43;;;;;;;28.23;15.10;;;;;;;19.70;49.05;98967.19;4470856;32;20099;-87
2022/10/14 10:20:32;;;;;;;29.35;14.75;;;;;;;19.70;49.02;98963.66;4470625;32;20097;-87
2022/10/14 10:23:23;;;;;;;26.73;14.82;;;;;;;19.87;48.66;98956.84;4471177;32;20096;-87
2022/10/14 10:25:49;;;;;;;29.73;15.25;;;;;;;19.81;48.73;98960.91;4472685;32;20160;-88
2022/10/14 10:28:17;;;;;;;26.70;15.05;;;;;;;19.74;48.71;98965.97;4471407;32;20390;-87
2022/10/14 10:30:47;;;;;;;;;;;;;;;19.61;49.15;98960.00;4471768;32;20085;-89
2022/10/14 10:33:34;;;;;;;23.70;12.98;;;;;;;19.87;48.35;98956.84;4471681;32;20019;-89
2022/10/14 10:36:07;;;;;;;26.10;14.75;;;;;;;19.82;48.49;98960.78;4471643;32;20155;-88
2022/10/14 10:38:45;;;;;;;24.55;13.77;;;;;;;19.72;49.02;98948.38;4472535;32;20081;-89
2022/10/14 10:41:33;;;;;;;26.65;13.07;;;;;;;19.89;48.66;98954.88;4471325;32;20160;-87
2022/10/14 10:44:02;;;;;;;24.33;13.55;;;;;;;20.03;47.89;98943.78;4472629;32;20096;-89
2022/10/14 10:46:49;;;;;;;29.02;14.05;;;;;;;19.83;48.01;98945.56;4472275;32;20088;-88
2022/10/14 10:49:56;;;;;;;24.55;13.25;;;;;;;19.84;47.95;98937.41;4472808;32;20080;-87
2022/10/14 10:52:37;;;;;;;26.92;14.00;;;;;;;20.03;47.75;98939.28;4458150;32;20109;-87
2022/10/14 10:55:09;;;;;;;25.80;14.63;;;;;;;20.07;47.30;98936.28;4472388;32;20157;-88
2022/10/14 10:57:52;;;;;;;26.52;13.90;;;;;;;19.95;47.85;98935.59;4471342;32;20444;-87
2022/10/14 11:00:21;;;;;;;25.25;14.40;;;;;;;20.04;48.29;98940.09;4472187;32;20149;-89
2022/10/14 11:02:59;;;;;;;29.27;16.33;;;;;;;19.83;49.04;98940.22;4472369;32;20104;-89
2022/10/14 11:06:04;;;;;;;27.45;14.45;;;;;;;20.04;48.54;98934.75;4471224;32;20119;-89
2022/10/14 11:14:35;;;;;;;26.23;13.57;;;;;;;19.96;47.59;98924.75;4471283;32;20124;-88
2022/10/14 11:17:21;;;;;;;23.80;12.93;;;;;;;20.14;47.32;98927.56;4471106;32;20100;-88
2022/10/14 11:20:04;;;;;;;24.55;12.82;;;;;;;20.31;47.14;98917.16;4471393;32;20118;-87
2022/10/14 11:22:43;;;;;;;23.35;12.48;;;;;;;20.38;46.57;98910.25;4471209;32;20154;-88
2022/10/14 11:25:32;;;;;;;22.20;11.65;;;;;;;19.96;46.83;98916.75;4472316;32;20122;-87
2022/10/14 11:28:11;;;;;;;25.30;11.70;;;;;;;20.08;46.72;98912.09;4472317;32;20092;-89
2022/10/14 11:30:52;;;;;;;23.98;11.93;;;;;;;20.11;46.96;98909.16;4471002;32;20115;-88
2022/10/14 11:33:59;;;;;;;22.75;11.60;;;;;;;20.29;46.84;98905.75;4472223;32;20137;-88
2022/10/14 11:36:39;;;;;;;19.65;10.48;;;;;;;20.29;45.96;98905.75;4439094;32;20658;-88